createdAt,value
2023-03-10T00:00:49.004Z,43.33
2023-03-10T00:05:52.202Z,42.22
2023-03-10T00:10:56.845Z,36.15
2023-03-10T00:16:00.110Z,44.20
2023-03-10T00:21:03.387Z,41.13
2023-03-10T00:26:08.314Z,40.97
2023-03-10T00:36:17.890Z,38.20
2023-03-10T00:41:24.327Z,41.88
2023-03-10T00:46:28.244Z,30.80
2023-03-10T00:51:31.489Z,37.47
2023-03-10T00:56:36.064Z,34.67
2023-03-10T01:01:41.473Z,41.38
2023-03-10T01:06:47.635Z,39.25
2023-03-10T01:11:52.244Z,42.58
2023-03-10T01:16:55.405Z,38.90
2023-03-10T01:21:58.592Z,42.80
2023-03-10T01:27:03.177Z,43.22
2023-03-10T01:32:07.078Z,38.78
2023-03-10T01:37:10.250Z,34.13
2023-03-10T01:42:14.816Z,39.83
2023-03-10T01:47:17.967Z,42.67
2023-03-10T01:52:24.591Z,37.20
2023-03-10T01:57:33.672Z,37.85
2023-03-10T02:02:38.901Z,40.83
2023-03-10T02:07:44.453Z,39.22
2023-03-10T02:12:49.005Z,34.13
2023-03-10T02:17:54.623Z,37.10
2023-03-10T02:22:57.786Z,36.38
2023-03-10T02:28:02.491Z,36.85
2023-03-10T02:33:09.104Z,43.38
2023-03-10T02:38:12.295Z,35.30
2023-03-10T02:43:20.213Z,33.13
2023-03-10T02:48:28.344Z,38.17
2023-03-10T02:53:31.848Z,39.78
2023-03-10T02:58:37.739Z,35.10
2023-03-10T03:03:41.245Z,38.42
2023-03-10T03:08:44.461Z,36.40
2023-03-10T03:13:49.063Z,38.47
2023-03-10T03:18:52.212Z,42.47
2023-03-10T03:23:55.464Z,33.97
2023-03-10T03:29:00.450Z,32.60
2023-03-10T03:34:04.579Z,33.47
2023-03-10T03:39:07.767Z,43.37
2023-03-10T03:44:12.311Z,37.60
2023-03-10T03:49:15.452Z,39.38
2023-03-10T03:54:18.558Z,40.30
2023-03-10T03:59:23.192Z,34.85
2023-03-10T04:04:26.356Z,34.78
2023-03-10T04:09:30.192Z,39.17
2023-03-10T04:14:36.010Z,31.48
2023-03-10T04:19:39.126Z,38.60
2023-03-10T04:24:42.270Z,25.30
2023-03-10T04:29:46.799Z,36.75
2023-03-10T04:34:49.972Z,36.97
2023-03-10T04:39:53.086Z,35.88
2023-03-10T04:44:57.772Z,36.42
2023-03-10T04:50:00.913Z,40.15
2023-03-10T04:55:04.243Z,37.13
2023-03-10T05:00:12.662Z,39.00
2023-03-10T05:05:15.953Z,28.63
2023-03-10T05:10:19.436Z,34.70
2023-03-10T05:15:24.105Z,31.35
2023-03-10T05:20:27.288Z,38.88
2023-03-10T05:25:30.726Z,31.50
2023-03-10T05:30:35.296Z,36.95
2023-03-10T05:35:39.163Z,34.97
2023-03-10T05:40:43.186Z,39.40
2023-03-10T05:45:56.378Z,34.05
2023-03-10T05:51:01.064Z,29.25
2023-03-10T05:56:07.607Z,34.05
2023-03-10T06:01:12.312Z,35.47
2023-03-10T06:06:15.460Z,28.35
2023-03-10T06:11:18.623Z,31.45
2023-03-10T06:16:23.411Z,33.35
2023-03-10T06:21:28.422Z,28.88
2023-03-10T06:31:36.469Z,27.88
2023-03-10T06:36:40.548Z,38.35
2023-03-10T06:41:43.727Z,32.97
2023-03-10T06:46:48.556Z,31.10
2023-03-10T06:51:51.724Z,29.35
2023-03-10T06:56:54.924Z,21.08
2023-03-10T07:01:59.517Z,24.75
2023-03-10T07:07:02.640Z,34.40
2023-03-10T07:12:06.406Z,30.48
2023-03-10T07:17:11.062Z,31.65
2023-03-10T07:22:14.226Z,34.40
2023-03-10T07:27:17.412Z,33.40
2023-03-10T07:32:21.965Z,25.30
2023-03-10T07:37:25.161Z,26.48
2023-03-10T07:42:28.390Z,33.92
2023-03-10T07:47:33.172Z,23.65
2023-03-10T07:52:36.336Z,26.92
2023-03-10T07:57:39.472Z,35.28
2023-03-10T08:02:44.400Z,23.80
2023-03-10T08:12:50.414Z,26.88
2023-03-10T08:17:55.002Z,28.10
2023-03-10T08:22:58.151Z,30.27
2023-03-10T08:28:01.310Z,25.33
2023-03-10T08:33:07.771Z,33.22
2023-03-10T08:38:10.968Z,22.13
2023-03-10T08:43:14.104Z,26.35
2023-03-10T08:48:18.647Z,25.20
2023-03-10T08:53:21.824Z,28.67
2023-03-10T08:58:24.968Z,25.35
2023-03-10T09:03:31.569Z,27.73
2023-03-10T09:08:35.302Z,25.15
2023-03-10T09:13:39.447Z,22.83
2023-03-10T09:18:44.398Z,23.70
2023-03-10T09:23:50.174Z,23.35
2023-03-10T09:28:56.760Z,29.00
2023-03-10T09:34:01.924Z,22.80
2023-03-10T09:39:05.914Z,27.10
2023-03-10T09:44:25.334Z,23.33
2023-03-10T09:49:34.905Z,25.77
2023-03-10T09:54:47.068Z,20.02
2023-03-10T09:59:53.936Z,19.23
2023-03-10T10:05:04.043Z,17.60
2023-03-10T10:10:14.381Z,20.08
2023-03-10T10:15:21.432Z,19.25
2023-03-10T10:20:30.155Z,15.85
2023-03-10T10:25:33.865Z,22.08
2023-03-10T10:30:38.901Z,20.95
2023-03-10T10:35:46.357Z,17.15
2023-03-10T10:40:51.419Z,20.90
2023-03-10T10:45:56.366Z,17.35
2023-03-10T10:51:00.936Z,22.40
2023-03-10T11:01:12.767Z,17.02
2023-03-10T11:06:27.275Z,16.35
2023-03-10T11:11:37.141Z,19.10
2023-03-10T11:16:50.126Z,10.82
2023-03-10T11:22:00.688Z,13.38
2023-03-10T11:27:10.548Z,13.20
2023-03-10T11:32:22.071Z,17.52
2023-03-10T11:37:34.342Z,14.88
2023-03-10T11:42:44.324Z,18.50
2023-03-10T11:47:58.350Z,13.35
2023-03-10T11:53:07.932Z,13.10
2023-03-10T11:58:22.416Z,15.95
2023-03-10T12:08:36.349Z,15.15
2023-03-10T12:13:46.068Z,16.73
2023-03-10T12:18:49.687Z,14.82
2023-03-10T12:23:56.062Z,14.60
2023-03-10T12:29:25.396Z,19.67
2023-03-10T12:34:31.730Z,20.30
2023-03-10T12:39:41.896Z,18.80
2023-03-10T12:44:51.883Z,20.80
2023-03-10T12:49:59.355Z,21.45
2023-03-10T12:55:24.300Z,24.05
2023-03-10T13:00:36.717Z,15.50
2023-03-10T13:05:42.884Z,15.73
2023-03-10T13:10:47.838Z,18.50
2023-03-10T13:15:59.404Z,17.00
2023-03-10T13:21:02.702Z,15.80
2023-03-10T13:26:09.310Z,20.73
2023-03-10T13:31:20.711Z,16.13
2023-03-10T13:36:31.473Z,14.48
2023-03-10T13:41:37.687Z,18.70
2023-03-10T13:46:40.921Z,14.63
2023-03-10T13:51:54.534Z,13.32
2023-03-10T13:57:03.202Z,17.60
2023-03-10T14:02:14.759Z,15.32
2023-03-10T14:07:19.738Z,14.50
2023-03-10T14:12:38.709Z,12.65
2023-03-10T14:17:43.289Z,13.40
2023-03-10T14:22:46.516Z,16.80
2023-03-10T14:27:56.288Z,19.63
2023-03-10T14:33:02.054Z,14.02
2023-03-10T14:38:05.286Z,18.15
2023-03-10T14:43:16.929Z,14.35
2023-03-10T14:48:23.247Z,14.15
2023-03-10T14:53:28.355Z,16.08
2023-03-10T14:58:34.812Z,14.55
2023-03-10T15:03:37.968Z,13.95
2023-03-10T15:08:41.400Z,16.80
2023-03-10T15:13:46.061Z,13.98
2023-03-10T15:18:49.396Z,16.60
2023-03-10T15:23:52.587Z,11.82
2023-03-10T15:28:57.151Z,14.35
2023-03-10T15:39:03.448Z,15.77
2023-03-10T15:44:08.768Z,19.73
2023-03-10T15:49:11.870Z,13.30
2023-03-10T15:54:15.009Z,13.65
2023-03-10T15:59:20.791Z,15.70
2023-03-10T16:09:27.422Z,16.08
2023-03-10T16:14:32.163Z,16.17
2023-03-10T16:19:35.365Z,13.52
2023-03-10T16:24:38.493Z,15.18
2023-03-10T16:29:43.291Z,11.23
2023-03-10T16:34:46.703Z,14.60
2023-03-10T16:39:49.872Z,17.38
2023-03-10T16:44:56.857Z,19.48
2023-03-10T16:50:00.306Z,15.02
2023-03-10T16:55:05.214Z,16.88
2023-03-10T17:00:12.327Z,13.15
2023-03-10T17:05:15.690Z,12.77
2023-03-10T17:10:19.037Z,12.38
2023-03-10T17:15:23.606Z,13.85
2023-03-10T17:20:27.172Z,12.38
2023-03-10T17:25:30.358Z,11.18
2023-03-10T17:30:35.025Z,13.13
2023-03-10T17:40:42.900Z,8.43
2023-03-10T17:45:57.086Z,10.33
2023-03-10T17:51:00.546Z,11.77
2023-03-10T17:56:07.979Z,11.27
2023-03-10T18:01:15.046Z,9.15
2023-03-10T18:06:20.749Z,10.25
2023-03-10T18:11:24.631Z,6.88
2023-03-10T18:16:32.704Z,13.57
2023-03-10T18:21:35.939Z,13.15
2023-03-10T18:26:43.387Z,12.35
2023-03-10T18:31:47.964Z,12.95
2023-03-10T18:36:52.016Z,17.08
2023-03-10T18:41:55.332Z,16.23
2023-03-10T18:46:59.887Z,15.75
2023-03-10T18:52:03.040Z,17.75
2023-03-10T18:57:06.304Z,15.80
2023-03-10T19:02:15.137Z,14.95
2023-03-10T19:07:20.499Z,15.27
2023-03-10T19:12:25.000Z,11.80
2023-03-10T19:17:29.573Z,11.93
2023-03-10T19:22:34.974Z,14.00
2023-03-10T19:27:40.443Z,10.73
2023-03-10T19:32:45.400Z,12.27
2023-03-10T19:37:48.515Z,13.85
2023-03-10T19:42:51.835Z,12.18
2023-03-10T19:47:58.000Z,13.40
2023-03-10T19:53:01.151Z,13.70
2023-03-10T19:58:04.317Z,17.05
2023-03-10T20:03:08.977Z,13.10
2023-03-10T20:13:15.159Z,14.63
2023-03-10T20:18:21.234Z,11.05
2023-03-10T20:23:24.722Z,14.68
2023-03-10T20:28:27.870Z,11.73
2023-03-10T20:33:32.780Z,14.43
2023-03-10T20:38:36.009Z,15.18
2023-03-10T20:43:39.207Z,12.40
2023-03-10T20:48:43.766Z,18.15
2023-03-10T20:53:46.976Z,15.77
2023-03-10T20:58:50.159Z,13.57
2023-03-10T21:03:54.975Z,13.32
2023-03-10T21:08:58.180Z,13.85
2023-03-10T21:14:01.359Z,13.25
2023-03-10T21:19:06.781Z,16.08
2023-03-10T21:24:10.347Z,12.68
2023-03-10T21:29:13.568Z,13.35
2023-03-10T21:34:18.115Z,8.95
2023-03-10T21:39:21.465Z,11.27
2023-03-10T21:44:24.651Z,9.55
2023-03-10T21:49:29.148Z,10.00
2023-03-10T21:54:32.345Z,9.95
2023-03-10T21:59:35.480Z,9.65
2023-03-10T22:04:40.376Z,14.07
2023-03-10T22:09:43.867Z,13.00
2023-03-10T22:14:47.699Z,13.45
2023-03-10T22:19:54.901Z,15.10
2023-03-10T22:24:58.347Z,14.90
2023-03-10T22:30:01.781Z,16.20
2023-03-10T22:35:07.511Z,12.43
2023-03-10T22:40:16.313Z,12.55
2023-03-10T22:45:21.670Z,15.07
2023-03-10T22:50:28.167Z,15.68
2023-03-10T22:55:35.706Z,11.40
2023-03-10T23:00:40.626Z,10.35
2023-03-10T23:05:46.163Z,13.05
2023-03-10T23:10:49.358Z,15.32
2023-03-10T23:15:52.747Z,13.57
2023-03-10T23:20:57.442Z,8.27
2023-03-10T23:26:00.945Z,14.43
2023-03-10T23:31:04.598Z,14.32
2023-03-10T23:36:11.832Z,17.48
2023-03-10T23:41:15.317Z,14.70
2023-03-10T23:46:18.568Z,19.73
2023-03-10T23:51:23.134Z,12.07
2023-03-10T23:56:26.288Z,19.63
